Time;durP1;ratioP1;P1;durP2;ratioP2;P2;SDS_P1;SDS_P2;PMS_P1;PMS_P2;Temp;Humidity;BMP_temperature;BMP_pressure;BME280_temperature;BME280_humidity;BME280_pressure;Samples;Min_cycle;Max_cycle;Signal;HPM_P1;HPM_P2
2022/01/13 00:01:18;;;;;;;;;;;;;;;;;;5046986;28;20019;-65
2022/01/13 00:03:45;;;;;;;;;;;;;;;;;;5046925;28;19925;-65
2022/01/13 00:06:11;;;;;;;;;;;;;;;;;;5045618;28;19932;-65
2022/01/13 00:08:37;;;;;;;;;;;;;;;;;;5045580;28;19925;-65
2022/01/13 00:11:03;;;;;;;;;;;;;;;;;;5046403;28;20000;-65
2022/01/13 00:13:43;;;;;;;;;;;;;;;;;;5045890;28;19925;-66
2022/01/13 00:18:40;;;;;;;;;;;;;;;;;;5045712;28;20302;-65
2022/01/13 00:23:53;;;;;;;;;;;;;;;;;;5045957;28;19924;-65
2022/01/13 00:26:27;;;;;;;;;;;;;;;;;;5045874;28;19924;-65
2022/01/13 00:28:53;;;;;;;;;;;;;;;;;;5046034;28;20410;-66
2022/01/13 00:31:23;;;;;;;;;;;;;;;;;;5045727;28;19924;-65
2022/01/13 00:33:51;;;;;;;;;;;;;;;;;;5045266;28;19925;-66
2022/01/13 00:36:17;;;;;;;;;;;;;;;;;;5045551;28;19978;-65
2022/01/13 00:38:43;;;;;;;;;;;;;;;;;;5045935;28;19920;-65
2022/01/13 00:41:09;;;;;;;;;;;;;;;;;;5045820;28;20637;-65
2022/01/13 00:43:39;;;;;;;;;;;;;;;;;;5045483;28;19925;-65
2022/01/13 00:46:05;;;;;;;;;;;;;;;;;;5045774;28;19970;-65
2022/01/13 00:48:31;;;;;;;;;;;;;;;;;;5045369;28;20004;-65
2022/01/13 00:50:57;;;;;;;;;;;;;;;;;;5044597;28;20007;-66
2022/01/13 00:53:23;;;;;;;;;;;;;;;;;;5045183;28;19924;-65
2022/01/13 00:55:58;;;;;;;;;;;;;;;;;;5045729;28;20411;-66
2022/01/13 00:58:24;;;;;;;;;;;;;;;;;;5044571;28;19932;-65
2022/01/13 01:00:50;;;;;;;;;;;;;;;;;;5045550;28;20397;-66
2022/01/13 01:03:16;;;;;;;;;;;;;;;;;;5045885;28;20572;-65
2022/01/13 01:05:42;;;;;;;;;;;;;;;;;;5044045;28;19929;-65
2022/01/13 01:08:09;;;;;;;;;;;;;;;;;;5045526;28;20325;-65
2022/01/13 01:10:35;;;;;;;;;;;;;;;;;;5045155;28;19924;-65
2022/01/13 01:13:10;;;;;;;;;;;;;;;;;;5043528;28;20470;-65
2022/01/13 01:15:36;;;;;;;;;;;;;;;;;;5045116;28;19925;-65
2022/01/13 01:18:12;;;;;;;;;;;;;;;;;;5045481;28;20401;-65
2022/01/13 01:20:49;;;;;;;;;;;;;;;;;;5044552;28;19933;-65
2022/01/13 01:23:19;;;;;;;;;;;;;;;;;;5045742;28;19924;-65
2022/01/13 01:25:58;;;;;;;;;;;;;;;;;;5045022;28;20366;-65
2022/01/13 01:28:33;;;;;;;;;;;;;;;;;;5045038;28;20417;-65
2022/01/13 01:30:59;;;;;;;;;;;;;;;;;;5044657;28;19925;-65
2022/01/13 01:33:25;;;;;;;;;;;;;;;;;;5045044;28;20290;-66
2022/01/13 01:35:51;;;;;;;;;;;;;;;;;;5044407;28;19971;-65
2022/01/13 01:38:19;;;;;;;;;;;;;;;;;;5045737;28;19925;-65
2022/01/13 01:40:45;;;;;;;;;;;;;;;;;;5045458;28;19924;-65
2022/01/13 01:43:11;;;;;;;;;;;;;;;;;;5044954;28;19925;-65
2022/01/13 01:45:43;;;;;;;;;;;;;;;;;;5043509;28;20008;-65
2022/01/13 01:48:10;;;;;;;;;;;;;;;;;;5045142;28;19970;-65
2022/01/13 01:50:38;;;;;;;;;;;;;;;;;;5043859;28;19967;-65
2022/01/13 01:53:04;;;;;;;;;;;;;;;;;;5044945;28;20391;-65
2022/01/13 01:55:30;;;;;;;;;;;;;;;;;;5044520;28;19925;-65
2022/01/13 01:57:56;;;;;;;;;;;;;;;;;;5044844;28;20019;-65
2022/01/13 02:00:22;;;;;;;;;;;;;;;;;;5044811;28;19932;-66
2022/01/13 02:02:48;;;;;;;;;;;;;;;;;;5080641;22;19924;-65
2022/01/13 02:05:14;;;;;;;;;;;;;;;;;;5084643;28;19924;-65
2022/01/13 02:07:40;;;;;;;;;;;;;;;;;;5083607;28;19932;-65
2022/01/13 02:10:06;;;;;;;;;;;;;;;;;;5087526;28;19930;-65
2022/01/13 02:12:36;;;;;;;;;;;;;;;;;;5088663;28;20017;-65
2022/01/13 02:17:34;;;;;;;;;;;;;;;;;;5088218;28;20020;-65
2022/01/13 02:20:00;;;;;;;;;;;;;;;;;;5087221;28;20301;-65
2022/01/13 02:22:26;;;;;;;;;;;;;;;;;;5088463;28;19931;-65
2022/01/13 02:24:52;;;;;;;;;;;;;;;;;;5088705;28;19923;-66
2022/01/13 02:27:18;;;;;;;;;;;;;;;;;;5088631;28;19924;-65
2022/01/13 02:29:44;;;;;;;;;;;;;;;;;;5088948;28;19931;-65
2022/01/13 02:32:10;;;;;;;;;;;;;;;;;;5088613;28;19923;-65
2022/01/13 02:34:36;;;;;;;;;;;;;;;;;;5087073;28;19977;-65
2022/01/13 02:37:02;;;;;;;;;;;;;;;;;;5088675;28;20363;-65
2022/01/13 02:39:28;;;;;;;;;;;;;;;;;;5088060;28;19920;-66
2022/01/13 02:41:54;;;;;;;;;;;;;;;;;;5086649;28;20560;-65
2022/01/13 02:44:22;;;;;;;;;;;;;;;;;;5088278;28;19920;-65
2022/01/13 02:49:14;;;;;;;;;;;;;;;;;;5087366;28;20369;-65
2022/01/13 02:51:40;;;;;;;;;;;;;;;;;;5087929;28;20019;-65
2022/01/13 02:54:06;;;;;;;;;;;;;;;;;;5087981;28;19924;-65
2022/01/13 02:56:32;;;;;;;;;;;;;;;;;;5088039;28;19931;-65
2022/01/13 02:58:58;;;;;;;;;;;;;;;;;;5087756;28;20011;-65
2022/01/13 03:01:24;;;;;;;;;;;;;;;;;;5086295;28;19977;-65
2022/01/13 03:03:50;;;;;;;;;;;;;;;;;;5087218;28;19931;-66
2022/01/13 03:06:16;;;;;;;;;;;;;;;;;;5087933;28;20038;-65
2022/01/13 03:08:42;;;;;;;;;;;;;;;;;;5087493;28;19931;-65
2022/01/13 03:11:08;;;;;;;;;;;;;;;;;;5087902;28;19942;-65
2022/01/13 03:13:34;;;;;;;;;;;;;;;;;;5087365;28;19931;-65
2022/01/13 03:16:00;;;;;;;;;;;;;;;;;;5087807;28;19924;-65
2022/01/13 03:18:26;;;;;;;;;;;;;;;;;;5087320;28;19931;-65
2022/01/13 03:20:52;;;;;;;;;;;;;;;;;;5086145;28;19979;-65
2022/01/13 03:23:19;;;;;;;;;;;;;;;;;;5086666;28;20396;-66
2022/01/13 03:25:46;;;;;;;;;;;;;;;;;;5088032;28;19931;-65
2022/01/13 03:28:28;;;;;;;;;;;;;;;;;;5087653;28;19975;-65
2022/01/13 03:30:54;;;;;;;;;;;;;;;;;;5086225;28;20738;-65
2022/01/13 03:33:20;;;;;;;;;;;;;;;;;;5087089;28;19931;-65
2022/01/13 03:35:46;;;;;;;;;;;;;;;;;;5086360;28;19923;-65
2022/01/13 03:38:12;;;;;;;;;;;;;;;;;;5087573;28;19920;-65
2022/01/13 03:40:39;;;;;;;;;;;;;;;;;;5087252;28;19979;-65
2022/01/13 03:43:05;;;;;;;;;;;;;;;;;;5087425;28;19955;-65
2022/01/13 03:45:32;;;;;;;;;;;;;;;;;;5085200;28;19989;-65
2022/01/13 03:47:58;;;;;;;;;;;;;;;;;;5087223;28;20533;-65
2022/01/13 03:50:24;;;;;;;;;;;;;;;;;;5085846;28;19920;-65
2022/01/13 03:52:50;;;;;;;;;;;;;;;;;;5086704;28;20042;-66
2022/01/13 03:55:16;;;;;;;;;;;;;;;;;;5087326;28;19977;-65
2022/01/13 03:57:42;;;;;;;;;;;;;;;;;;5087004;28;19925;-65
2022/01/13 04:00:08;;;;;;;;;;;;;;;;;;5085202;28;20015;-65
2022/01/13 04:02:34;;;;;;;;;;;;;;;;;;5086503;28;19924;-65
2022/01/13 04:05:00;;;;;;;;;;;;;;;;;;5086456;28;19931;-66
2022/01/13 04:07:27;;;;;;;;;;;;;;;;;;5086780;28;19928;-65
2022/01/13 04:09:53;;;;;;;;;;;;;;;;;;5086350;28;19982;-66
2022/01/13 04:12:20;;;;;;;;;;;;;;;;;;5086472;28;19968;-66
2022/01/13 04:14:49;;;;;;;;;;;;;;;;;;5087243;28;20357;-65
2022/01/13 04:17:15;;;;;;;;;;;;;;;;;;5085189;28;20412;-65
2022/01/13 04:19:41;;;;;;;;;;;;;;;;;;5085560;28;19956;-66
2022/01/13 04:22:07;;;;;;;;;;;;;;;;;;5086499;28;19924;-65
2022/01/13 04:24:33;;;;;;;;;;;;;;;;;;5085887;28;19924;-65
2022/01/13 04:26:59;;;;;;;;;;;;;;;;;;5086598;28;20384;-65
2022/01/13 04:29:40;;;;;;;;;;;;;;;;;;5086119;28;19924;-66
2022/01/13 04:32:06;;;;;;;;;;;;;;;;;;5086004;28;20438;-65
2022/01/13 04:34:32;;;;;;;;;;;;;;;;;;5085355;28;19924;-65
2022/01/13 04:36:58;;;;;;;;;;;;;;;;;;5086456;28;19924;-66
2022/01/13 04:39:24;;;;;;;;;;;;;;;;;;5085551;28;19959;-66
2022/01/13 04:41:52;;;;;;;;;;;;;;;;;;5086184;28;20400;-66
2022/01/13 04:44:18;;;;;;;;;;;;;;;;;;5085769;28;19950;-66
2022/01/13 04:46:44;;;;;;;;;;;;;;;;;;5085725;28;20057;-65
2022/01/13 04:49:10;;;;;;;;;;;;;;;;;;5085318;28;20278;-65
2022/01/13 04:51:36;;;;;;;;;;;;;;;;;;5085717;28;19920;-65
2022/01/13 04:54:02;;;;;;;;;;;;;;;;;;5085881;28;19924;-65
2022/01/13 04:56:31;;;;;;;;;;;;;;;;;;5085396;28;19931;-65
2022/01/13 04:58:57;;;;;;;;;;;;;;;;;;5085932;28;19930;-65
2022/01/13 05:01:23;;;;;;;;;;;;;;;;;;5085324;28;20007;-65
2022/01/13 05:03:49;;;;;;;;;;;;;;;;;;5084679;28;19932;-66
2022/01/13 05:06:19;;;;;;;;;;;;;;;;;;5086405;28;19924;-65
2022/01/13 05:08:44;;;;;;;;;;;;;;;;;;5086096;28;19930;-66
2022/01/13 05:11:10;;;;;;;;;;;;;;;;;;5085247;28;19924;-66
2022/01/13 05:13:36;;;;;;;;;;;;;;;;;;5085427;28;19928;-66
2022/01/13 05:16:03;;;;;;;;;;;;;;;;;;5085651;28;19928;-65
2022/01/13 05:18:43;;;;;;;;;;;;;;;;;;5084551;28;19923;-63
2022/01/13 05:21:20;;;;;;;;;;;;;;;;;;5085543;28;19931;-65
2022/01/13 05:23:46;;;;;;;;;;;;;;;;;;5085571;28;19924;-65
2022/01/13 05:26:12;;;;;;;;;;;;;;;;;;5085727;28;20381;-65
2022/01/13 05:28:40;;;;;;;;;;;;;;;;;;5085411;28;19954;-65
2022/01/13 05:31:06;;;;;;;;;;;;;;;;;;5085153;28;19936;-65
2022/01/13 05:33:32;;;;;;;;;;;;;;;;;;5084282;28;19928;-65
2022/01/13 05:36:00;;;;;;;;;;;;;;;;;;5085635;28;19975;-65
2022/01/13 05:38:26;;;;;;;;;;;;;;;;;;5085226;28;19932;-65
2022/01/13 05:40:53;;;;;;;;;;;;;;;;;;5084938;28;20030;-65
2022/01/13 05:43:19;;;;;;;;;;;;;;;;;;5085575;28;20296;-66
2022/01/13 05:45:45;;;;;;;;;;;;;;;;;;5090030;28;20381;-65
2022/01/13 05:48:11;;;;;;;;;;;;;;;;;;5088550;28;19920;-66
2022/01/13 05:50:37;;;;;;;;;;;;;;;;;;5088883;28;19924;-66
2022/01/13 05:53:03;;;;;;;;;;;;;;;;;;5089377;28;19924;-65
2022/01/13 05:55:29;;;;;;;;;;;;;;;;;;5088361;28;19931;-65
2022/01/13 05:57:55;;;;;;;;;;;;;;;;;;5089395;28;19924;-65
2022/01/13 06:00:21;;;;;;;;;;;;;;;;;;5089055;28;20442;-66
2022/01/13 06:02:47;;;;;;;;;;;;;;;;;;5089248;28;19928;-65
2022/01/13 06:05:13;;;;;;;;;;;;;;;;;;5088183;28;19928;-65
2022/01/13 06:07:39;;;;;;;;;;;;;;;;;;5088794;28;19927;-66
2022/01/13 06:10:05;;;;;;;;;;;;;;;;;;5088726;28;19928;-65
2022/01/13 06:12:33;;;;;;;;;;;;;;;;;;5087432;28;19932;-65
2022/01/13 06:14:59;;;;;;;;;;;;;;;;;;5088627;28;20373;-65
2022/01/13 06:17:25;;;;;;;;;;;;;;;;;;5088231;28;19938;-65
2022/01/13 06:19:51;;;;;;;;;;;;;;;;;;5087609;28;19920;-65
2022/01/13 06:22:17;;;;;;;;;;;;;;;;;;5089214;28;19939;-67
2022/01/13 06:24:43;;;;;;;;;;;;;;;;;;5087335;28;19924;-65
2022/01/13 06:27:09;;;;;;;;;;;;;;;;;;5084687;28;19920;-65
2022/01/13 06:29:35;;;;;;;;;;;;;;;;;;5080741;28;19924;-65
2022/01/13 06:32:01;;;;;;;;;;;;;;;;;;5082824;28;19994;-64
2022/01/13 06:34:27;;;;;;;;;;;;;;;;;;5086478;28;19924;-65
2022/01/13 06:36:53;;;;;;;;;;;;;;;;;;5080013;28;20095;-65
2022/01/13 06:39:19;;;;;;;;;;;;;;;;;;5081994;28;19939;-65
2022/01/13 06:41:45;;;;;;;;;;;;;;;;;;5083907;28;19924;-65
2022/01/13 06:44:11;;;;;;;;;;;;;;;;;;5079094;28;19920;-65
2022/01/13 06:46:38;;;;;;;;;;;;;;;;;;5080828;28;20163;-65
2022/01/13 06:49:04;;;;;;;;;;;;;;;;;;5081871;28;20411;-65
2022/01/13 06:51:30;;;;;;;;;;;;;;;;;;5082519;28;19920;-65
2022/01/13 06:53:56;;;;;;;;;;;;;;;;;;5082500;28;20407;-65
2022/01/13 06:56:24;;;;;;;;;;;;;;;;;;5079497;28;20455;-65
2022/01/13 06:58:50;;;;;;;;;;;;;;;;;;5082171;28;19924;-64
2022/01/13 07:01:17;;;;;;;;;;;;;;;;;;5080206;28;20446;-64
2022/01/13 07:03:43;;;;;;;;;;;;;;;;;;5081033;28;19930;-64
2022/01/13 07:06:09;;;;;;;;;;;;;;;;;;5087141;28;20010;-64
2022/01/13 07:08:35;;;;;;;;;;;;;;;;;;5082896;28;20417;-65
2022/01/13 07:11:03;;;;;;;;;;;;;;;;;;5087362;28;19934;-64
2022/01/13 07:13:29;;;;;;;;;;;;;;;;;;5087009;28;19932;-65
2022/01/13 07:15:55;;;;;;;;;;;;;;;;;;5086968;28;20010;-64
2022/01/13 07:18:21;;;;;;;;;;;;;;;;;;5085790;28;20365;-64
2022/01/13 07:20:48;;;;;;;;;;;;;;;;;;5080168;28;19937;-63
2022/01/13 07:23:14;;;;;;;;;;;;;;;;;;5084779;28;19972;-65
2022/01/13 07:25:40;;;;;;;;;;;;;;;;;;5084573;28;19971;-64
2022/01/13 07:28:06;;;;;;;;;;;;;;;;;;5084560;28;19976;-64
2022/01/13 07:30:32;;;;;;;;;;;;;;;;;;5084574;28;20422;-64
2022/01/13 07:32:58;;;;;;;;;;;;;;;;;;5083250;28;19934;-64
2022/01/13 07:35:24;;;;;;;;;;;;;;;;;;5084446;28;19928;-64
2022/01/13 07:37:50;;;;;;;;;;;;;;;;;;5084979;28;19935;-64
2022/01/13 07:40:17;;;;;;;;;;;;;;;;;;5084634;28;19999;-64
2022/01/13 07:42:43;;;;;;;;;;;;;;;;;;5085463;28;19981;-64
2022/01/13 07:45:09;;;;;;;;;;;;;;;;;;5084460;28;19926;-65
2022/01/13 07:47:35;;;;;;;;;;;;;;;;;;5084015;28;20018;-65
2022/01/13 07:50:01;;;;;;;;;;;;;;;;;;5083397;28;19928;-64
2022/01/13 07:52:27;;;;;;;;;;;;;;;;;;5075922;28;19920;-64
2022/01/13 07:54:54;;;;;;;;;;;;;;;;;;5066443;28;19931;-64
2022/01/13 07:57:20;;;;;;;;;;;;;;;;;;5083395;28;20400;-64
2022/01/13 07:59:46;;;;;;;;;;;;;;;;;;5084752;28;19928;-63
2022/01/13 08:02:12;;;;;;;;;;;;;;;;;;5082647;28;19963;-63
2022/01/13 08:04:38;;;;;;;;;;;;;;;;;;5082476;28;19927;-63
2022/01/13 08:07:04;;;;;;;;;;;;;;;;;;5083971;28;19962;-63
2022/01/13 08:09:30;;;;;;;;;;;;;;;;;;5078546;28;19928;-63
2022/01/13 08:11:56;;;;;;;;;;;;;;;;;;5081569;28;20427;-62
2022/01/13 08:14:22;;;;;;;;;;;;;;;;;;5085040;28;19971;-63
2022/01/13 08:16:55;;;;;;;;;;;;;;;;;;5079778;28;19990;-64
2022/01/13 08:22:06;;;;;;;;;;;;;;;;;;5065954;28;19977;-63
2022/01/13 08:24:32;;;;;;;;;;;;;;;;;;5065766;28;19928;-63
2022/01/13 08:26:58;;;;;;;;;;;;;;;;;;5075721;28;19924;-63
2022/01/13 08:29:24;;;;;;;;;;;;;;;;;;5085863;28;19924;-63
2022/01/13 08:31:50;;;;;;;;;;;;;;;;;;5085855;28;19924;-63
2022/01/13 08:34:16;;;;;;;;;;;;;;;;;;5085076;28;20336;-63
2022/01/13 08:36:42;;;;;;;;;;;;;;;;;;5085252;28;19931;-63
2022/01/13 08:39:08;;;;;;;;;;;;;;;;;;5085830;28;19969;-63
2022/01/13 08:41:34;;;;;;;;;;;;;;;;;;5085210;28;20330;-62
2022/01/13 08:44:00;;;;;;;;;;;;;;;;;;5084776;28;19920;-63
2022/01/13 08:46:26;;;;;;;;;;;;;;;;;;5085103;28;19963;-63
2022/01/13 08:48:52;;;;;;;;;;;;;;;;;;5083412;28;20460;-63
2022/01/13 08:51:18;;;;;;;;;;;;;;;;;;5085248;28;19920;-63
2022/01/13 08:53:45;;;;;;;;;;;;;;;;;;5086237;28;19924;-63
2022/01/13 08:56:11;;;;;;;;;;;;;;;;;;5084846;28;19931;-63
2022/01/13 08:58:37;;;;;;;;;;;;;;;;;;5084520;28;19928;-64
2022/01/13 09:01:03;;;;;;;;;;;;;;;;;;5084872;28;20443;-63
2022/01/13 09:03:29;;;;;;;;;;;;;;;;;;5083704;28;19924;-63
2022/01/13 09:05:55;;;;;;;;;;;;;;;;;;5082728;28;20461;-62
2022/01/13 09:08:21;;;;;;;;;;;;;;;;;;5084814;28;20019;-63
2022/01/13 09:10:47;;;;;;;;;;;;;;;;;;5085142;28;20007;-63
2022/01/13 09:13:15;;;;;;;;;;;;;;;;;;5085762;28;19955;-63
2022/01/13 09:15:45;;;;;;;;;;;;;;;;;;5084351;28;19924;-64
2022/01/13 09:18:17;;;;;;;;;;;;;;;;;;5082373;28;19924;-63
2022/01/13 09:20:43;;;;;;;;;;;;;;;;;;5085290;28;20437;-63
2022/01/13 09:23:09;;;;;;;;;;;;;;;;;;5085365;28;20142;-63
2022/01/13 09:25:35;;;;;;;;;;;;;;;;;;5084470;28;19924;-63
2022/01/13 09:28:01;;;;;;;;;;;;;;;;;;5083714;28;19947;-63
2022/01/13 09:30:27;;;;;;;;;;;;;;;;;;5084767;28;19968;-62
2022/01/13 09:32:53;;;;;;;;;;;;;;;;;;5084899;28;19928;-63
2022/01/13 09:35:19;;;;;;;;;;;;;;;;;;5085264;28;20014;-64
2022/01/13 09:37:45;;;;;;;;;;;;;;;;;;5085441;28;20090;-62
2022/01/13 09:40:11;;;;;;;;;;;;;;;;;;5084270;28;20007;-63
2022/01/13 09:42:37;;;;;;;;;;;;;;;;;;5085175;28;20455;-62
2022/01/13 09:45:03;;;;;;;;;;;;;;;;;;5085192;28;19920;-62
2022/01/13 09:47:29;;;;;;;;;;;;;;;;;;5085250;28;19967;-62
2022/01/13 09:49:55;;;;;;;;;;;;;;;;;;5083336;28;19931;-63
2022/01/13 09:52:21;;;;;;;;;;;;;;;;;;5085125;28;19996;-64
2022/01/13 09:54:47;;;;;;;;;;;;;;;;;;5085186;28;19935;-66
2022/01/13 09:57:13;;;;;;;;;;;;;;;;;;5081536;28;19932;-64
2022/01/13 09:59:39;;;;;;;;;;;;;;;;;;5079922;28;20286;-64
2022/01/13 10:02:06;;;;;;;;;;;;;;;;;;5080471;28;19950;-64
2022/01/13 10:04:31;;;;;;;;;;;;;;;;;;5080664;28;20388;-64
2022/01/13 10:06:57;;;;;;;;;;;;;;;;;;5077568;28;20005;-64
2022/01/13 10:09:23;;;;;;;;;;;;;;;;;;5077957;28;20437;-65
2022/01/13 10:11:54;;;;;;;;;;;;;;;;;;5084641;28;19924;-66
2022/01/13 10:16:52;;;;;;;;;;;;;;;;;;5084297;28;20407;-65
2022/01/13 10:19:18;;;;;;;;;;;;;;;;;;5084185;28;19924;-66
2022/01/13 10:21:44;;;;;;;;;;;;;;;;;;5085032;28;20019;-64
2022/01/13 10:24:11;;;;;;;;;;;;;;;;;;5084222;28;19928;-64
2022/01/13 10:26:37;;;;;;;;;;;;;;;;;;5084629;28;20260;-64
2022/01/13 10:29:03;;;;;;;;;;;;;;;;;;5084551;28;19924;-64
2022/01/13 10:31:29;;;;;;;;;;;;;;;;;;5087799;28;19969;-64
2022/01/13 10:33:57;;;;;;;;;;;;;;;;;;5085741;28;20340;-64
2022/01/13 10:36:23;;;;;;;;;;;;;;;;;;5088149;28;20429;-65
2022/01/13 10:38:49;;;;;;;;;;;;;;;;;;5087935;28;19938;-65
2022/01/13 10:41:15;;;;;;;;;;;;;;;;;;5088055;28;20347;-64
2022/01/13 10:43:41;;;;;;;;;;;;;;;;;;5088004;28;19978;-64
2022/01/13 10:46:07;;;;;;;;;;;;;;;;;;5088029;28;20388;-64
2022/01/13 10:48:35;;;;;;;;;;;;;;;;;;5086135;28;20003;-65
2022/01/13 10:51:04;;;;;;;;;;;;;;;;;;5087914;28;19916;-64
2022/01/13 10:53:30;;;;;;;;;;;;;;;;;;5087371;28;19925;-65
2022/01/13 10:55:56;;;;;;;;;;;;;;;;;;5087615;28;19924;-64
2022/01/13 10:58:22;;;;;;;;;;;;;;;;;;5087868;28;19924;-64
2022/01/13 11:00:47;;;;;;;;;;;;;;;;;;5088026;28;19924;-65
2022/01/13 11:03:14;;;;;;;;;;;;;;;;;;5087172;28;19928;-65
2022/01/13 11:05:40;;;;;;;;;;;;;;;;;;5087167;28;20582;-64
2022/01/13 11:08:06;;;;;;;;;;;;;;;;;;5087557;28;19924;-64
2022/01/13 11:10:32;;;;;;;;;;;;;;;;;;5087311;28;19924;-64
2022/01/13 11:13:00;;;;;;;;;;;;;;;;;;5086928;28;19924;-64
2022/01/13 11:15:26;;;;;;;;;;;;;;;;;;5085853;28;19931;-65
2022/01/13 11:17:52;;;;;;;;;;;;;;;;;;5086548;28;19928;-65
2022/01/13 11:20:18;;;;;;;;;;;;;;;;;;5086240;28;19928;-66
2022/01/13 11:22:44;;;;;;;;;;;;;;;;;;5087561;28;19977;-66
2022/01/13 11:25:10;;;;;;;;;;;;;;;;;;5086497;28;20010;-64
2022/01/13 11:27:37;;;;;;;;;;;;;;;;;;5086219;28;20399;-64
2022/01/13 11:30:03;;;;;;;;;;;;;;;;;;5064631;28;19929;-64
2022/01/13 11:32:29;;;;;;;;;;;;;;;;;;5063251;28;20297;-66
2022/01/13 11:34:55;;;;;;;;;;;;;;;;;;5063699;28;20531;-64
2022/01/13 11:37:21;;;;;;;;;;;;;;;;;;5062596;28;19994;-65
2022/01/13 11:39:47;;;;;;;;;;;;;;;;;;5063941;28;20206;-65
2022/01/13 11:42:13;;;;;;;;;;;;;;;;;;5064056;28;19929;-64
2022/01/13 11:44:39;;;;;;;;;;;;;;;;;;5063185;28;20035;-64
2022/01/13 11:47:08;;;;;;;;;;;;;;;;;;5064335;28;20011;-65
2022/01/13 11:49:45;;;;;;;;;;;;;;;;;;5062614;28;20289;-64
2022/01/13 11:52:15;;;;;;;;;;;;;;;;;;5062921;28;19924;-65
2022/01/13 11:54:41;;;;;;;;;;;;;;;;;;5076897;28;19928;-64
2022/01/13 11:57:07;;;;;;;;;;;;;;;;;;5084141;28;20427;-64
2022/01/13 11:59:35;;;;;;;;;;;;;;;;;;5081159;28;21304;-64
2022/01/13 12:02:01;;;;;;;;;;;;;;;;;;5082652;28;20431;-65
2022/01/13 12:04:27;;;;;;;;;;;;;;;;;;5081741;28;19932;-65
2022/01/13 12:06:53;;;;;;;;;;;;;;;;;;5080446;28;20022;-65
2022/01/13 12:09:19;;;;;;;;;;;;;;;;;;5083429;28;20012;-64
2022/01/13 12:11:46;;;;;;;;;;;;;;;;;;5083307;28;19939;-65
2022/01/13 12:14:12;;;;;;;;;;;;;;;;;;5083099;28;19925;-64
2022/01/13 12:16:38;;;;;;;;;;;;;;;;;;5082123;28;19934;-64
2022/01/13 12:19:09;;;;;;;;;;;;;;;;;;5082392;28;20377;-65
2022/01/13 12:21:37;;;;;;;;;;;;;;;;;;5079157;28;19976;-64
2022/01/13 12:24:03;;;;;;;;;;;;;;;;;;5083028;28;19973;-63
2022/01/13 12:26:29;;;;;;;;;;;;;;;;;;5082581;28;19924;-64
2022/01/13 12:28:55;;;;;;;;;;;;;;;;;;5079697;28;19932;-63
2022/01/13 12:31:21;;;;;;;;;;;;;;;;;;5082412;28;20468;-64
2022/01/13 12:33:47;;;;;;;;;;;;;;;;;;5079725;28;19924;-64
2022/01/13 12:36:13;;;;;;;;;;;;;;;;;;5083348;28;19934;-64
2022/01/13 12:38:39;;;;;;;;;;;;;;;;;;5082379;28;19928;-64
2022/01/13 12:41:15;;;;;;;;;;;;;;;;;;5082384;28;19934;-64
2022/01/13 12:46:08;;;;;;;;;;;;;;;;;;5083201;28;19924;-64
2022/01/13 12:48:34;;;;;;;;;;;;;;;;;;5078302;28;19925;-65
2022/01/13 12:51:00;;;;;;;;;;;;;;;;;;5080405;28;19924;-64
2022/01/13 12:53:27;;;;;;;;;;;;;;;;;;5083691;28;19927;-64
2022/01/13 12:55:53;;;;;;;;;;;;;;;;;;5085649;28;19952;-64
2022/01/13 12:58:19;;;;;;;;;;;;;;;;;;5084853;28;20296;-65
2022/01/13 13:00:45;;;;;;;;;;;;;;;;;;5085670;28;19924;-64
2022/01/13 13:03:12;;;;;;;;;;;;;;;;;;5084502;28;20015;-64
2022/01/13 13:05:38;;;;;;;;;;;;;;;;;;5085212;28;19927;-64
2022/01/13 13:08:04;;;;;;;;;;;;;;;;;;5084899;28;19932;-63
2022/01/13 13:10:30;;;;;;;;;;;;;;;;;;5085134;28;19932;-63
2022/01/13 13:12:56;;;;;;;;;;;;;;;;;;5083825;28;19924;-64
2022/01/13 13:17:51;;;;;;;;;;;;;;;;;;5084330;28;20376;-65
2022/01/13 13:20:17;;;;;;;;;;;;;;;;;;5085823;28;19935;-64
2022/01/13 13:22:43;;;;;;;;;;;;;;;;;;5085569;28;20011;-64
2022/01/13 13:25:09;;;;;;;;;;;;;;;;;;5085112;28;19931;-64
2022/01/13 13:27:35;;;;;;;;;;;;;;;;;;5084873;28;19950;-64
2022/01/13 13:30:01;;;;;;;;;;;;;;;;;;5085221;28;19931;-63
2022/01/13 13:32:27;;;;;;;;;;;;;;;;;;5083546;28;20278;-64
2022/01/13 13:34:53;;;;;;;;;;;;;;;;;;5085245;28;19931;-64
2022/01/13 13:37:19;;;;;;;;;;;;;;;;;;5084557;28;19924;-65
2022/01/13 13:39:45;;;;;;;;;;;;;;;;;;5085023;28;19928;-64
2022/01/13 13:42:13;;;;;;;;;;;;;;;;;;5084892;28;20365;-64
2022/01/13 13:44:41;;;;;;;;;;;;;;;;;;5069189;28;19924;-64
2022/01/13 13:47:07;;;;;;;;;;;;;;;;;;5063796;28;19928;-64
2022/01/13 13:49:33;;;;;;;;;;;;;;;;;;5064166;28;19925;-65
2022/01/13 13:51:59;;;;;;;;;;;;;;;;;;5078860;28;19927;-65
2022/01/13 13:54:27;;;;;;;;;;;;;;;;;;5083899;28;19964;-64
2022/01/13 13:56:53;;;;;;;;;;;;;;;;;;5083923;28;19985;-64
2022/01/13 13:59:20;;;;;;;;;;;;;;;;;;5079280;28;19924;-65
2022/01/13 14:01:46;;;;;;;;;;;;;;;;;;5081865;28;20007;-64
2022/01/13 14:04:12;;;;;;;;;;;;;;;;;;5080697;28;20625;-65
2022/01/13 14:06:38;;;;;;;;;;;;;;;;;;5081366;28;19989;-65
2022/01/13 14:09:04;;;;;;;;;;;;;;;;;;5082040;28;20480;-65
2022/01/13 14:11:30;;;;;;;;;;;;;;;;;;5082035;28;19935;-64
2022/01/13 14:13:56;;;;;;;;;;;;;;;;;;5085517;28;20008;-65
2022/01/13 14:16:22;;;;;;;;;;;;;;;;;;5085593;28;19984;-65
2022/01/13 14:18:49;;;;;;;;;;;;;;;;;;5084885;28;19920;-65
2022/01/13 14:21:15;;;;;;;;;;;;;;;;;;5077547;28;19960;-64
2022/01/13 14:23:41;;;;;;;;;;;;;;;;;;5064773;28;19972;-64
2022/01/13 14:26:07;;;;;;;;;;;;;;;;;;5065790;28;19993;-64
2022/01/13 14:28:33;;;;;;;;;;;;;;;;;;5064460;28;19924;-65
2022/01/13 14:30:59;;;;;;;;;;;;;;;;;;5065495;28;19931;-64
2022/01/13 14:33:25;;;;;;;;;;;;;;;;;;5064589;28;20298;-64
2022/01/13 14:35:51;;;;;;;;;;;;;;;;;;5064494;28;20332;-65
2022/01/13 14:38:18;;;;;;;;;;;;;;;;;;5065584;28;20614;-66
2022/01/13 14:40:44;;;;;;;;;;;;;;;;;;5064648;28;19932;-65
2022/01/13 14:43:17;;;;;;;;;;;;;;;;;;5065417;28;19928;-64
2022/01/13 14:45:43;;;;;;;;;;;;;;;;;;5081803;28;19929;-63
2022/01/13 14:48:09;;;;;;;;;;;;;;;;;;5086974;28;19968;-64
2022/01/13 14:50:35;;;;;;;;;;;;;;;;;;5087231;28;20006;-63
2022/01/13 14:53:02;;;;;;;;;;;;;;;;;;5086090;28;19924;-63
2022/01/13 14:55:28;;;;;;;;;;;;;;;;;;5087379;28;20010;-63
2022/01/13 14:57:55;;;;;;;;;;;;;;;;;;5087851;28;19931;-63
2022/01/13 15:00:21;;;;;;;;;;;;;;;;;;5086952;28;19931;-63
2022/01/13 15:02:48;;;;;;;;;;;;;;;;;;5086933;28;19924;-63
2022/01/13 15:05:14;;;;;;;;;;;;;;;;;;5086570;28;20395;-63
2022/01/13 15:07:40;;;;;;;;;;;;;;;;;;5086409;28;19935;-63
2022/01/13 15:10:06;;;;;;;;;;;;;;;;;;5087351;28;19925;-63
2022/01/13 15:12:32;;;;;;;;;;;;;;;;;;5087399;28;19924;-63
2022/01/13 15:14:58;;;;;;;;;;;;;;;;;;5085776;28;20284;-64
2022/01/13 15:17:24;;;;;;;;;;;;;;;;;;5085461;28;19924;-64
2022/01/13 15:19:51;;;;;;;;;;;;;;;;;;5087234;28;20024;-64
2022/01/13 15:22:18;;;;;;;;;;;;;;;;;;5087633;28;20014;-66
2022/01/13 15:24:44;;;;;;;;;;;;;;;;;;5087020;28;19963;-64
2022/01/13 15:27:10;;;;;;;;;;;;;;;;;;5086816;28;20583;-63
2022/01/13 15:29:36;;;;;;;;;;;;;;;;;;5086418;28;19924;-64
2022/01/13 15:32:02;;;;;;;;;;;;;;;;;;5085714;28;19930;-64
2022/01/13 15:34:28;;;;;;;;;;;;;;;;;;5086443;28;20556;-64
2022/01/13 15:36:54;;;;;;;;;;;;;;;;;;5086903;28;19924;-64
2022/01/13 15:39:20;;;;;;;;;;;;;;;;;;5084714;28;19930;-64
2022/01/13 15:41:47;;;;;;;;;;;;;;;;;;5087350;28;19945;-63
2022/01/13 15:44:13;;;;;;;;;;;;;;;;;;5087343;28;19931;-65
2022/01/13 15:46:38;;;;;;;;;;;;;;;;;;5085553;28;19928;-64
2022/01/13 15:49:04;;;;;;;;;;;;;;;;;;5085895;28;20281;-64
2022/01/13 15:51:30;;;;;;;;;;;;;;;;;;5086427;28;19964;-64
2022/01/13 15:53:56;;;;;;;;;;;;;;;;;;5086450;28;19978;-64
2022/01/13 15:56:22;;;;;;;;;;;;;;;;;;5086024;28;19924;-64
2022/01/13 15:58:48;;;;;;;;;;;;;;;;;;5086357;28;19924;-64
2022/01/13 16:01:14;;;;;;;;;;;;;;;;;;5085966;28;19924;-66
2022/01/13 16:03:40;;;;;;;;;;;;;;;;;;5083760;28;21000;-63
2022/01/13 16:06:06;;;;;;;;;;;;;;;;;;5085513;28;19924;-64
2022/01/13 16:08:32;;;;;;;;;;;;;;;;;;5075874;28;19935;-64
2022/01/13 16:11:04;;;;;;;;;;;;;;;;;;5063827;28;19925;-65
2022/01/13 16:13:34;;;;;;;;;;;;;;;;;;5073091;28;20698;-64
2022/01/13 16:16:00;;;;;;;;;;;;;;;;;;5075039;28;20652;-64
2022/01/13 16:18:26;;;;;;;;;;;;;;;;;;5075751;28;19928;-64
2022/01/13 16:20:52;;;;;;;;;;;;;;;;;;5069483;28;19978;-64
2022/01/13 16:23:19;;;;;;;;;;;;;;;;;;5075363;28;19931;-64
2022/01/13 16:25:45;;;;;;;;;;;;;;;;;;5075544;28;19931;-63
2022/01/13 16:28:11;;;;;;;;;;;;;;;;;;5078181;28;19932;-64
2022/01/13 16:30:38;;;;;;;;;;;;;;;;;;5075717;28;20118;-64
2022/01/13 16:33:04;;;;;;;;;;;;;;;;;;5069523;28;20308;-64
2022/01/13 16:35:30;;;;;;;;;;;;;;;;;;5070876;28;20396;-64
2022/01/13 16:37:56;;;;;;;;;;;;;;;;;;5073241;28;19939;-64
2022/01/13 16:40:22;;;;;;;;;;;;;;;;;;5079570;28;19928;-64
2022/01/13 16:42:49;;;;;;;;;;;;;;;;;;5082464;28;19965;-64
2022/01/13 16:45:15;;;;;;;;;;;;;;;;;;5082740;28;19935;-64
2022/01/13 16:47:41;;;;;;;;;;;;;;;;;;5080317;28;19924;-63
2022/01/13 16:50:07;;;;;;;;;;;;;;;;;;5078575;28;20411;-63
2022/01/13 16:52:33;;;;;;;;;;;;;;;;;;5080145;28;21300;-64
2022/01/13 16:55:00;;;;;;;;;;;;;;;;;;5075688;28;19932;-63
2022/01/13 16:57:26;;;;;;;;;;;;;;;;;;5080706;28;19935;-64
2022/01/13 16:59:52;;;;;;;;;;;;;;;;;;5080707;28;19953;-63
2022/01/13 17:02:18;;;;;;;;;;;;;;;;;;5077603;28;20511;-64